Time;durP1;ratioP1;P1;durP2;ratioP2;P2;SDS_P1;SDS_P2;PMS_P1;PMS_P2;Temp;Humidity;BMP_temperature;BMP_pressure;BME280_temperature;BME280_humidity;BME280_pressure;Samples;Min_cycle;Max_cycle;Signal;HPM_P1;HPM_P2
2022/10/22 00:02:14;;;;;;;3.15;2.37;;;;;;;14.93;44.50;102547.88;1674285;84;21579;-52
2022/10/22 00:04:42;;;;;;;2.95;2.35;;;;;;;14.84;44.73;102544.06;1672629;84;21072;-50
2022/10/22 00:07:08;;;;;;;2.85;2.25;;;;;;;14.77;44.85;102548.93;1672538;84;21155;-51
2022/10/22 00:09:37;;;;;;;3.90;2.40;;;;;;;14.71;45.17;102547.69;1672570;83;21536;-50
2022/10/22 00:12:05;;;;;;;4.87;2.77;;;;;;;14.64;45.51;102545.56;1673048;84;21057;-51
2022/10/22 00:14:32;;;;;;;5.33;2.80;;;;;;;14.59;45.78;102540.36;1673817;84;21033;-51
2022/10/22 00:17:01;;;;;;;4.45;3.17;;;;;;;14.55;45.94;102550.45;1674297;84;21045;-55
2022/10/22 00:19:29;;;;;;;3.00;2.40;;;;;;;14.53;46.08;102548.28;1678236;85;21048;-50
2022/10/22 00:21:58;;;;;;;2.47;2.27;;;;;;;14.51;46.28;102547.44;1675674;83;21053;-50
2022/10/22 00:24:25;;;;;;;2.87;2.42;;;;;;;14.50;46.35;102540.48;1675626;84;21006;-52
2022/10/22 00:26:51;;;;;;;3.17;2.60;;;;;;;14.50;46.46;102536.98;1686641;83;21034;-55
2022/10/22 00:29:19;;;;;;;2.98;2.67;;;;;;;14.48;46.64;102529.14;1703214;82;20978;-51
2022/10/22 00:31:48;;;;;;;3.05;2.40;;;;;;;14.48;46.71;102529.14;1703166;82;21050;-52
2022/10/22 00:34:20;;;;;;;3.60;2.62;;;;;;;14.46;46.73;102528.30;1703253;82;21054;-51
2022/10/22 00:36:48;;;;;;;2.58;2.35;;;;;;;14.44;46.87;102523.95;1703509;82;21042;-54
2022/10/22 00:39:16;;;;;;;2.90;2.40;;;;;;;14.41;47.00;102524.84;1703909;82;21048;-50
2022/10/22 00:41:44;;;;;;;4.87;2.92;;;;;;;14.39;47.12;102520.48;1699846;82;21069;-50
2022/10/22 00:45:00;;;;;;;3.75;2.60;;;;;;;14.37;47.16;102521.82;1706168;82;21057;-51
2022/10/22 00:47:35;;;;;;;4.05;2.70;;;;;;;14.36;47.20;102512.20;1701707;82;21053;-52
2022/10/22 00:50:07;;;;;;;10.10;4.60;;;;;;;14.35;47.34;102514.42;1608872;89;21201;-51
2022/10/22 00:52:34;;;;;;;9.58;3.85;;;;;;;14.35;47.25;102516.16;1609074;88;21042;-52
2022/10/22 00:55:01;;;;;;;3.77;3.05;;;;;;;14.33;47.26;102510.07;1608798;88;21571;-53
2022/10/22 00:57:27;;;;;;;3.22;2.80;;;;;;;14.31;47.27;102502.23;1608839;89;21141;-54
2022/10/22 00:59:55;;;;;;;3.25;2.60;;;;;;;14.27;47.33;102503.12;1608591;89;21102;-56
2022/10/22 01:02:21;;;;;;;4.75;2.98;;;;;;;14.26;47.49;102505.30;1608764;88;21066;-53
2022/10/22 01:04:48;;;;;;;4.65;3.02;;;;;;;14.22;47.58;102508.82;1608792;88;21554;-54
2022/10/22 01:07:17;;;;;;;3.67;2.90;;;;;;;14.20;47.69;102506.66;1608922;88;21075;-53
2022/10/22 01:09:49;;;;;;;3.17;2.85;;;;;;;14.17;47.89;102505.83;1608935;88;21535;-53
2022/10/22 01:12:48;;;;;;;3.50;2.95;;;;;;;14.17;48.00;102505.83;1572922;90;21090;-51
2022/10/22 01:15:26;;;;;;;3.75;2.67;;;;;;;14.15;48.05;102505.85;1500117;96;21664;-56
2022/10/22 01:18:16;;;;;;;4.45;3.27;;;;;;;14.16;48.03;102506.27;1466553;98;21098;-53
2022/10/22 01:21:16;;;;;;;7.25;3.45;;;;;;;14.16;48.06;102508.88;1466498;98;21559;-51
2022/10/22 01:24:13;;;;;;;5.20;3.37;;;;;;;14.15;48.14;102503.23;1464792;98;21086;-51
2022/10/22 01:27:36;;;;;;;3.85;3.37;;;;;;;14.14;48.17;102496.24;1464057;97;21173;-50
2022/10/22 01:30:07;;;;;;;3.47;3.00;;;;;;;14.12;48.37;102494.52;1441926;99;21649;-52
2022/10/22 01:32:40;;;;;;;5.28;3.37;;;;;;;14.08;48.43;102498.92;1386438;102;21150;-50
2022/10/22 01:35:09;;;;;;;3.58;3.17;;;;;;;14.06;48.46;102495.45;1399334;101;21075;-52
2022/10/22 01:37:41;;;;;;;3.50;3.08;;;;;;;14.04;48.52;102490.66;1399487;101;21077;-50
2022/10/22 01:40:10;;;;;;;3.17;2.87;;;;;;;14.04;48.65;102485.86;1392203;103;21085;-51
2022/10/22 01:42:37;;;;;;;6.28;3.30;;;;;;;14.04;48.78;102481.94;1381043;104;21167;-52
2022/10/22 01:45:11;;;;;;;3.47;3.17;;;;;;;14.04;48.74;102472.34;1381311;102;21135;-56
2022/10/22 01:47:58;;;;;;;3.65;2.58;;;;;;;14.06;48.73;102470.58;1389348;102;21193;-53
2022/10/22 01:50:59;;;;;;;2.95;2.65;;;;;;;14.08;48.76;102464.89;1397779;100;21128;-54
2022/10/22 01:53:48;;;;;;;3.22;2.92;;;;;;;14.09;48.67;102457.48;1441832;98;21177;-51
2022/10/22 01:56:35;;;;;;;3.42;3.12;;;;;;;14.10;48.61;102463.13;1431141;99;21166;-51
2022/10/22 01:59:33;;;;;;;4.50;2.90;;;;;;;14.09;48.59;102466.64;1426943;100;21149;-50
2022/10/22 02:02:34;;;;;;;3.58;2.60;;;;;;;14.08;48.63;102470.13;1426158;100;21213;-50
2022/10/22 02:05:23;;;;;;;3.00;2.70;;;;;;;14.07;48.87;102467.09;1396706;101;21137;-51
2022/10/22 02:08:14;;;;;;;2.75;2.55;;;;;;;14.07;49.35;102468.41;1402981;101;21133;-56
2022/10/22 02:10:43;;;;;;;4.22;2.67;;;;;;;14.09;49.62;102464.02;1370283;104;21103;-56
2022/10/22 02:13:17;;;;;;;3.67;3.08;;;;;;;14.11;49.76;102462.26;1371236;104;21203;-51
2022/10/22 02:15:45;;;;;;;3.10;2.62;;;;;;;14.15;49.88;102456.11;1371059;104;21143;-53
2022/10/22 02:18:11;;;;;;;3.37;3.08;;;;;;;14.20;49.88;102463.92;1371613;104;21650;-51
2022/10/22 02:20:40;;;;;;;4.10;3.20;;;;;;;14.23;49.97;102459.52;1371758;104;21647;-51
2022/10/22 02:23:08;;;;;;;3.15;2.85;;;;;;;14.28;50.11;102457.73;1373525;104;21108;-51
2022/10/22 02:25:40;;;;;;;3.27;2.77;;;;;;;14.33;50.16;102455.95;1365806;104;21192;-51
2022/10/22 02:28:34;;;;;;;3.35;3.02;;;;;;;14.38;50.24;102445.00;1369885;103;21201;-54
2022/10/22 02:31:16;;;;;;;2.52;2.25;;;;;;;14.44;50.25;102451.48;1369795;103;21216;-51
2022/10/22 02:33:46;;;;;;;2.55;2.30;;;;;;;14.48;50.31;102441.83;1356713;103;21206;-51
2022/10/22 02:36:14;;;;;;;4.03;2.35;;;;;;;14.50;50.51;102433.08;1379901;101;21148;-53
2022/10/22 02:38:41;;;;;;;2.40;1.80;;;;;;;14.55;50.82;102433.87;1390842;102;21173;-52
2022/10/22 02:41:07;;;;;;;2.45;1.77;;;;;;;14.60;51.70;102433.39;1419005;100;21111;-52
2022/10/22 02:43:41;;;;;;;3.75;1.65;;;;;;;14.71;52.37;102437.64;1419087;98;21137;-53
2022/10/22 02:46:09;;;;;;;3.95;1.72;;;;;;;14.80;52.56;102425.70;1421628;100;21631;-51
2022/10/22 02:48:36;;;;;;;4.45;1.60;;;;;;;14.93;52.40;102432.55;1422083;101;21203;-51
2022/10/22 02:51:03;;;;;;;2.12;1.40;;;;;;;15.05;52.68;102428.00;1421829;101;21137;-51
2022/10/22 02:53:30;;;;;;;2.25;1.75;;;;;;;15.19;52.54;102418.62;1421984;101;21178;-50
2022/10/22 02:55:56;;;;;;;4.37;1.67;;;;;;;15.31;52.68;102421.94;1422205;101;21576;-51
2022/10/22 02:58:23;;;;;;;1.60;1.25;;;;;;;15.45;52.42;102419.16;1421997;101;21598;-53
2022/10/22 03:00:50;;;;;;;3.90;1.40;;;;;;;15.58;52.24;102415.90;1422130;101;21170;-52
2022/10/22 03:03:17;;;;;;;2.92;1.47;;;;;;;15.70;52.71;102416.57;1435153;99;21495;-56
2022/10/22 03:05:44;;;;;;;2.98;1.50;;;;;;;15.80;52.40;102411.58;1443158;99;21126;-52
2022/10/22 03:08:10;;;;;;;4.15;2.05;;;;;;;15.91;52.21;102408.30;1493335;95;21165;-51
2022/10/22 03:10:36;;;;;;;5.40;1.57;;;;;;;16.01;51.81;102416.91;1500699;94;21578;-52
2022/10/22 03:13:03;;;;;;;5.42;2.22;;;;;;;16.10;51.71;102421.53;1465926;98;21220;-53
2022/10/22 03:15:30;;;;;;;4.12;1.60;;;;;;;16.21;51.86;102423.53;1500161;95;21116;-52
2022/10/22 03:17:58;;;;;;;1.92;1.47;;;;;;;16.29;51.23;102408.92;1500188;95;21156;-54
2022/10/22 03:20:24;;;;;;;2.00;1.65;;;;;;;16.39;50.95;102418.36;1498993;95;21111;-51
2022/10/22 03:22:52;;;;;;;2.77;1.40;;;;;;;16.47;51.06;102414.25;1501401;95;21124;-51
2022/10/22 03:25:21;;;;;;;4.50;1.95;;;;;;;16.53;51.20;102408.47;1540278;91;21644;-51
2022/10/22 03:27:51;;;;;;;5.53;2.15;;;;;;;16.60;50.95;102406.15;1566432;90;21088;-50
2022/10/22 03:30:19;;;;;;;5.37;1.60;;;;;;;16.65;51.15;102400.80;1605702;87;21057;-51
2022/10/22 03:32:47;;;;;;;6.33;1.75;;;;;;;16.69;51.21;102399.84;1543287;91;21099;-51
2022/10/22 03:35:14;;;;;;;5.72;1.82;;;;;;;16.72;50.92;102403.70;1600394;87;21073;-51
2022/10/22 03:37:42;;;;;;;3.72;1.72;;;;;;;16.75;50.41;102392.70;1545337;91;21134;-50
2022/10/22 03:40:10;;;;;;;3.40;1.60;;;;;;;16.79;50.34;102386.47;1599471;87;21077;-51
2022/10/22 03:42:37;;;;;;;4.08;2.15;;;;;;;16.83;50.41;102392.52;1644563;83;21057;-50
2022/10/22 03:45:05;;;;;;;3.08;1.60;;;;;;;16.86;50.08;102390.69;1708788;82;21109;-51
2022/10/22 03:47:32;;;;;;;2.27;1.55;;;;;;;16.90;50.01;102394.97;1708843;82;21569;-54
2022/10/22 03:49:59;;;;;;;3.92;1.62;;;;;;;16.94;49.83;102401.02;1696231;82;20983;-51
2022/10/22 03:52:25;;;;;;;4.12;1.60;;;;;;;16.97;49.78;102395.71;1708715;82;21045;-51
2022/10/22 03:54:52;;;;;;;3.77;1.65;;;;;;;17.02;49.91;102395.17;1707500;82;21058;-52
2022/10/22 03:57:19;;;;;;;6.58;1.70;;;;;;;17.06;50.26;102401.62;1706952;82;21502;-51
2022/10/22 03:59:47;;;;;;;6.42;1.45;;;;;;;17.09;50.17;102395.44;1707800;83;21066;-50
2022/10/22 04:02:14;;;;;;;4.03;1.95;;;;;;;17.11;49.99;102394.95;1708811;82;21526;-53
2022/10/22 04:04:41;;;;;;;1.52;1.42;;;;;;;17.13;50.25;102390.95;1708701;82;21050;-52
2022/10/22 04:07:08;;;;;;;4.55;1.60;;;;;;;17.12;49.78;102388.80;1707242;82;21050;-52
2022/10/22 04:09:36;;;;;;;7.33;1.65;;;;;;;17.14;49.73;102383.05;1705699;82;21522;-52
2022/10/22 04:12:06;;;;;;;4.08;1.47;;;;;;;17.15;49.71;102377.32;1695235;82;21058;-53
2022/10/22 04:14:34;;;;;;;3.45;1.55;;;;;;;17.18;49.75;102382.08;1708964;82;21585;-51
2022/10/22 04:17:01;;;;;;;3.42;1.70;;;;;;;17.20;49.59;102375.02;1705638;82;21018;-51
2022/10/22 04:19:27;;;;;;;6.75;2.02;;;;;;;17.23;49.66;102366.20;1705579;82;21002;-51
2022/10/22 04:21:56;;;;;;;3.45;1.92;;;;;;;17.25;49.59;102358.66;1697618;82;21077;-53
2022/10/22 04:24:22;;;;;;;4.70;1.72;;;;;;;17.29;49.13;102356.36;1702413;83;21022;-53
2022/10/22 04:26:49;;;;;;;3.67;1.90;;;;;;;17.31;49.69;102354.56;1710431;82;21557;-51
2022/10/22 04:29:15;;;;;;;5.05;1.90;;;;;;;17.33;49.82;102365.07;1707423;82;21055;-51
2022/10/22 04:31:42;;;;;;;4.28;1.60;;;;;;;17.36;49.79;102360.59;1705402;82;21112;-52
2022/10/22 04:34:08;;;;;;;5.87;1.98;;;;;;;17.38;49.66;102355.28;1705526;82;21003;-52
2022/10/22 04:36:36;;;;;;;4.95;1.92;;;;;;;17.38;49.88;102349.58;1705451;82;21002;-55
2022/10/22 04:39:03;;;;;;;4.08;1.87;;;;;;;17.39;49.79;102339.48;1705815;82;21034;-53
2022/10/22 04:41:34;;;;;;;3.77;1.65;;;;;;;17.41;50.10;102346.89;1706388;82;21023;-52
2022/10/22 04:44:01;;;;;;;4.28;1.60;;;;;;;17.42;50.36;102354.30;1702566;82;21085;-52
2022/10/22 04:46:30;;;;;;;4.28;1.72;;;;;;;17.44;50.45;102362.58;1708338;82;21538;-51
2022/10/22 04:48:57;;;;;;;5.33;1.77;;;;;;;17.45;50.48;102356.44;1704479;83;21048;-50
2022/10/22 04:51:25;;;;;;;3.40;1.72;;;;;;;17.49;50.48;102359.43;1707375;81;21035;-53
2022/10/22 04:53:53;;;;;;;3.37;1.90;;;;;;;17.53;50.58;102358.45;1705839;82;21028;-52
2022/10/22 04:56:25;;;;;;;8.85;1.82;;;;;;;17.57;50.48;102359.23;1704583;82;21031;-56
2022/10/22 04:58:58;;;;;;;2.33;1.55;;;;;;;17.60;50.73;102365.27;1626742;87;22299;-50
2022/10/22 05:01:28;;;;;;;6.60;2.20;;;;;;;17.65;50.57;102359.89;1631385;88;21086;-50
2022/10/22 05:03:56;;;;;;;5.83;1.70;;;;;;;17.68;50.67;102361.15;1629994;86;21030;-51
2022/10/22 05:06:25;;;;;;;4.15;1.82;;;;;;;17.72;50.58;102363.64;1632512;88;21058;-50
2022/10/22 05:08:58;;;;;;;3.67;1.80;;;;;;;17.76;50.40;102362.66;1632210;88;21052;-51
2022/10/22 05:11:29;;;;;;;7.05;2.15;;;;;;;17.79;50.38;102357.33;1611233;89;21125;-53
2022/10/22 05:13:57;;;;;;;2.65;1.45;;;;;;;17.82;50.21;102355.94;1602659;88;21081;-56
2022/10/22 05:16:24;;;;;;;3.60;1.85;;;;;;;17.86;50.24;102363.30;1598933;89;21069;-52
2022/10/22 05:18:52;;;;;;;6.55;1.72;;;;;;;17.88;49.82;102358.41;1599725;89;21811;-51
2022/10/22 05:21:20;;;;;;;4.15;1.90;;;;;;;17.91;49.71;102361.87;1610279;86;21581;-52
2022/10/22 05:23:49;;;;;;;5.12;1.70;;;;;;;17.92;49.54;102363.58;1598059;89;21113;-52
2022/10/22 05:26:18;;;;;;;5.10;1.80;;;;;;;17.93;49.56;102367.95;1610364;89;21042;-54
2022/10/22 05:28:47;;;;;;;5.92;1.65;;;;;;;17.93;49.65;102357.42;1597002;89;21089;-52
2022/10/22 05:31:14;;;;;;;4.47;1.30;;;;;;;17.95;49.77;102363.52;1604035;89;21090;-55
2022/10/22 05:33:41;;;;;;;4.28;1.57;;;;;;;17.96;49.60;102354.69;1606260;88;21520;-52
2022/10/22 05:36:14;;;;;;;5.50;1.67;;;;;;;17.97;49.72;102356.44;1600736;89;21141;-52
2022/10/22 05:38:42;;;;;;;5.15;2.00;;;;;;;17.99;49.48;102363.36;1602344;89;21133;-51
2022/10/22 05:41:13;;;;;;;3.83;1.60;;;;;;;18.00;49.79;102361.60;1605981;89;21077;-52
2022/10/22 05:43:40;;;;;;;4.27;1.70;;;;;;;18.03;49.42;102366.80;1606034;89;21030;-50
2022/10/22 05:46:09;;;;;;;5.85;1.60;;;;;;;18.05;48.92;102357.09;1597333;89;21127;-56
2022/10/22 05:48:36;;;;;;;3.47;1.62;;;;;;;18.07;48.79;102356.59;1605854;89;21136;-55
2022/10/22 05:51:09;;;;;;;3.70;1.42;;;;;;;18.08;48.98;102354.35;1607672;89;21097;-54
2022/10/22 05:53:39;;;;;;;5.97;1.65;;;;;;;18.12;49.53;102355.99;1599073;89;21065;-51
2022/10/22 05:56:13;;;;;;;4.35;1.57;;;;;;;18.14;49.42;102344.95;1655557;85;21060;-55
2022/10/22 05:58:42;;;;;;;3.05;1.50;;;;;;;18.19;49.71;102354.94;1670472;85;21090;-51
2022/10/22 06:01:20;;;;;;;6.20;1.70;;;;;;;18.19;49.17;102354.94;1673523;85;21053;-51
2022/10/22 06:03:47;;;;;;;5.60;2.15;;;;;;;18.21;49.21;102351.80;1671864;85;21033;-51
2022/10/22 06:06:36;;;;;;;5.25;1.80;;;;;;;18.24;49.41;102346.42;1670860;85;21057;-54
2022/10/22 06:09:32;;;;;;;5.35;1.90;;;;;;;18.25;49.07;102352.13;1703175;82;21042;-51
2022/10/22 06:11:59;;;;;;;2.98;1.65;;;;;;;18.29;48.66;102360.35;1706958;82;21467;-52
2022/10/22 06:14:27;;;;;;;4.70;1.60;;;;;;;18.33;48.73;102355.40;1706488;82;21538;-56
2022/10/22 06:16:54;;;;;;;6.00;1.65;;;;;;;18.35;48.51;102357.53;1706017;82;21030;-50
2022/10/22 06:19:25;;;;;;;11.08;2.05;;;;;;;18.38;48.67;102352.20;1705499;82;21042;-51
2022/10/22 06:21:52;;;;;;;4.80;1.85;;;;;;;18.42;48.24;102355.15;1697585;82;21022;-52
2022/10/22 06:24:20;;;;;;;8.25;2.10;;;;;;;18.44;48.22;102348.94;1705874;82;21038;-50
2022/10/22 06:26:51;;;;;;;5.58;2.35;;;;;;;18.46;48.69;102351.11;1705293;82;21463;-52
2022/10/22 06:29:17;;;;;;;4.30;1.70;;;;;;;18.48;48.78;102345.78;1705749;82;21062;-50
2022/10/22 06:31:44;;;;;;;2.87;1.52;;;;;;;18.49;48.42;102348.81;1705506;82;21010;-50
2022/10/22 06:34:12;;;;;;;4.50;1.75;;;;;;;18.50;48.20;102354.50;1705440;82;21003;-56
2022/10/22 06:36:42;;;;;;;5.87;1.80;;;;;;;18.51;48.26;102358.41;1702116;82;21022;-51
2022/10/22 06:39:13;;;;;;;6.25;2.08;;;;;;;18.52;48.48;102358.83;1708745;82;21073;-54
2022/10/22 06:41:39;;;;;;;8.33;1.90;;;;;;;18.55;48.33;102363.13;1623337;88;21093;-51
2022/10/22 06:44:06;;;;;;;5.20;1.98;;;;;;;18.57;48.29;102362.63;1632858;88;21633;-52
2022/10/22 06:46:32;;;;;;;4.17;1.92;;;;;;;18.58;47.96;102363.92;1632483;88;21101;-52
2022/10/22 06:49:01;;;;;;;5.12;1.90;;;;;;;18.59;48.13;102367.40;1630553;88;21113;-51
2022/10/22 06:51:29;;;;;;;5.70;2.12;;;;;;;18.60;47.78;102370.46;1633290;88;21085;-51
2022/10/22 06:53:56;;;;;;;6.30;2.22;;;;;;;18.61;47.88;102374.81;1631610;87;21581;-52
2022/10/22 06:56:26;;;;;;;5.40;2.08;;;;;;;18.62;48.07;102373.91;1631562;88;21096;-53
2022/10/22 06:58:54;;;;;;;4.22;1.85;;;;;;;18.61;47.99;102366.90;1630975;88;21084;-55
2022/10/22 07:01:26;;;;;;;6.80;2.33;;;;;;;18.62;48.27;102371.28;1632234;88;21109;-57
2022/10/22 07:03:53;;;;;;;5.67;1.87;;;;;;;18.61;48.58;102377.45;1632248;88;21497;-53
2022/10/22 07:06:21;;;;;;;6.15;2.55;;;;;;;18.61;48.52;102364.27;1631265;88;21116;-51
2022/10/22 07:08:49;;;;;;;3.20;1.80;;;;;;;18.62;48.13;102363.37;1631363;88;21026;-51
2022/10/22 07:11:19;;;;;;;9.33;2.02;;;;;;;18.62;47.98;102376.11;1630317;88;21059;-52
2022/10/22 07:13:46;;;;;;;8.55;2.35;;;;;;;18.64;48.29;102378.24;1631972;88;21005;-53
2022/10/22 07:16:15;;;;;;;5.85;2.35;;;;;;;18.67;48.60;102379.90;1631876;88;21085;-55
2022/10/22 07:18:42;;;;;;;6.00;2.60;;;;;;;18.72;48.79;102381.96;1632370;88;21025;-54
2022/10/22 07:21:10;;;;;;;4.47;1.85;;;;;;;18.74;48.24;102378.82;1632444;88;21093;-54
2022/10/22 07:23:38;;;;;;;8.43;1.82;;;;;;;18.75;48.06;102379.25;1630317;88;21117;-54
2022/10/22 07:26:08;;;;;;;7.85;2.40;;;;;;;18.78;47.90;102384.86;1632012;88;21072;-52
2022/10/22 07:28:36;;;;;;;8.60;2.50;;;;;;;18.78;48.06;102381.77;1626912;87;21517;-54
2022/10/22 07:31:04;;;;;;;7.65;2.17;;;;;;;18.81;48.19;102390.05;1618056;88;21485;-56
2022/10/22 07:33:31;;;;;;;7.30;2.45;;;;;;;18.84;48.07;102389.95;1617901;88;21076;-52
2022/10/22 07:35:59;;;;;;;7.55;2.58;;;;;;;18.84;47.84;102382.91;1617253;88;21587;-51
2022/10/22 07:38:26;;;;;;;5.60;2.15;;;;;;;18.88;47.96;102384.54;1627883;86;21086;-52
2022/10/22 07:40:53;;;;;;;9.53;2.27;;;;;;;18.90;48.23;102378.77;1618030;87;21093;-52
2022/10/22 07:43:19;;;;;;;8.60;2.60;;;;;;;18.94;48.33;102375.59;1615466;87;21081;-51
2022/10/22 07:45:47;;;;;;;6.53;2.45;;;;;;;18.96;48.24;102371.98;1635228;86;21080;-51
2022/10/22 07:48:14;;;;;;;8.18;2.87;;;;;;;18.96;47.83;102374.61;1618836;87;21078;-51
2022/10/22 07:50:41;;;;;;;10.88;2.70;;;;;;;18.96;47.98;102373.30;1618639;87;21114;-53
2022/10/22 07:53:07;;;;;;;9.65;2.75;;;;;;;18.97;48.17;102369.77;1666112;84;21061;-55
2022/10/22 07:55:34;;;;;;;6.25;2.45;;;;;;;18.96;48.58;102366.70;1672499;84;21044;-50
2022/10/22 07:58:01;;;;;;;5.58;2.37;;;;;;;18.98;48.80;102364.88;1681731;84;21501;-53
2022/10/22 08:00:27;;;;;;;8.68;2.52;;;;;;;19.00;48.44;102363.05;1675518;84;21057;-52
2022/10/22 08:02:54;;;;;;;5.55;1.95;;;;;;;19.02;48.39;102361.72;1674180;84;21017;-51
2022/10/22 08:05:21;;;;;;;10.00;2.83;;;;;;;19.05;48.24;102349.28;1672912;84;21545;-50
2022/10/22 08:07:47;;;;;;;5.30;2.17;;;;;;;19.07;48.10;102346.14;1676131;84;21073;-53
2022/10/22 08:10:15;;;;;;;4.50;2.10;;;;;;;19.12;48.07;102344.23;1663598;84;21521;-49
2022/10/22 08:12:44;;;;;;;5.30;2.27;;;;;;;19.14;47.92;102337.12;1671853;85;21037;-51
2022/10/22 08:15:10;;;;;;;3.75;2.10;;;;;;;19.17;47.75;102337.45;1675470;84;21009;-50
2022/10/22 08:17:37;;;;;;;3.55;1.82;;;;;;;19.19;48.00;102329.03;1667612;84;21065;-54
2022/10/22 08:20:05;;;;;;;3.55;2.02;;;;;;;19.22;47.72;102331.14;1669965;84;21091;-49
2022/10/22 08:22:32;;;;;;;7.28;2.42;;;;;;;19.24;47.80;102340.31;1673378;84;21465;-52
2022/10/22 08:24:59;;;;;;;9.08;2.90;;;;;;;19.26;48.07;102341.13;1671665;85;21089;-52
2022/10/22 08:27:26;;;;;;;6.95;2.33;;;;;;;19.29;48.07;102339.25;1678958;84;21031;-52
2022/10/22 08:29:52;;;;;;;5.35;2.27;;;;;;;19.31;47.38;102340.05;1699882;82;21495;-52
2022/10/22 08:32:19;;;;;;;8.00;2.58;;;;;;;19.35;47.23;102339.55;1703777;82;21586;-53
2022/10/22 08:34:46;;;;;;;5.37;2.20;;;;;;;19.38;47.41;102342.95;1704121;82;21003;-54
2022/10/22 08:37:13;;;;;;;4.25;2.00;;;;;;;19.42;47.72;102342.37;1705646;82;21042;-52
2022/10/22 08:39:40;;;;;;;4.92;2.00;;;;;;;19.45;47.91;102344.45;1706864;82;21071;-49
2022/10/22 08:42:38;;;;;;;5.78;2.02;;;;;;;19.48;47.75;102345.69;1706748;82;21066;-51
2022/10/22 08:45:31;;;;;;;6.08;2.05;;;;;;;19.49;47.65;102344.75;1713408;82;21050;-54
2022/10/22 08:48:13;;;;;;;3.87;2.02;;;;;;;19.53;47.90;102351.27;1700531;82;21058;-51
2022/10/22 08:50:46;;;;;;;6.27;2.10;;;;;;;19.53;47.46;102339.39;1696916;82;21054;-50
2022/10/22 08:53:20;;;;;;;10.70;3.33;;;;;;;19.53;48.16;102340.70;1700611;82;21129;-52
2022/10/22 08:55:48;;;;;;;6.70;2.22;;;;;;;19.53;48.51;102336.30;1614103;88;21074;-49
2022/10/22 08:58:32;;;;;;;8.68;2.55;;;;;;;19.55;48.35;102326.99;1634888;86;21061;-50
2022/10/22 09:01:15;;;;;;;8.75;2.20;;;;;;;19.56;48.50;102323.45;1650081;85;21134;-50
2022/10/22 09:03:55;;;;;;;5.30;2.10;;;;;;;19.56;48.26;102322.14;1633576;86;21005;-50
2022/10/22 09:06:27;;;;;;;6.67;2.27;;;;;;;19.55;48.19;102315.11;1634812;86;21578;-50
2022/10/22 09:08:54;;;;;;;5.80;2.08;;;;;;;19.56;48.06;102312.89;1629157;87;21105;-50
2022/10/22 09:11:34;;;;;;;7.12;2.20;;;;;;;19.56;48.40;102307.61;1613347;86;21122;-56
2022/10/22 09:14:01;;;;;;;4.92;2.12;;;;;;;19.56;48.07;102303.66;1635160;86;21085;-51
2022/10/22 09:16:39;;;;;;;10.32;2.95;;;;;;;19.56;48.29;102306.30;1635047;86;21065;-52
2022/10/22 09:19:21;;;;;;;9.85;2.75;;;;;;;19.56;48.69;102302.33;1630298;88;21073;-54
2022/10/22 09:22:02;;;;;;;5.97;2.25;;;;;;;19.57;48.86;102304.04;1522346;94;21107;-54
2022/10/22 09:24:41;;;;;;;3.10;1.67;;;;;;;19.55;48.20;102298.82;1480080;95;21127;-52
2022/10/22 09:27:17;;;;;;;4.75;1.87;;;;;;;19.55;48.44;102301.46;1480005;96;21104;-53
2022/10/22 09:29:46;;;;;;;6.28;2.40;;;;;;;19.56;48.89;102300.53;1480084;97;21123;-52
2022/10/22 09:32:14;;;;;;;7.05;2.10;;;;;;;19.60;49.16;102299.98;1480035;97;21128;-51
2022/10/22 09:34:44;;;;;;;7.50;1.95;;;;;;;19.62;49.38;102304.76;1480077;97;21149;-50
2022/10/22 09:37:10;;;;;;;7.15;2.15;;;;;;;19.64;48.70;102287.92;1479912;97;21144;-52
2022/10/22 09:39:43;;;;;;;3.83;1.80;;;;;;;19.67;49.15;102297.52;1479967;97;21146;-50
2022/10/22 09:42:14;;;;;;;6.17;2.10;;;;;;;19.67;48.12;102287.83;1479801;95;21162;-50
2022/10/22 09:44:41;;;;;;;10.65;2.70;;;;;;;19.68;47.87;102283.41;1479947;97;21080;-53
2022/10/22 09:47:33;;;;;;;5.10;1.95;;;;;;;19.70;48.14;102278.94;1480073;97;21835;-53
2022/10/22 09:50:32;;;;;;;6.47;2.20;;;;;;;19.72;48.35;102283.70;1487050;96;21136;-51
2022/10/22 09:53:21;;;;;;;8.10;2.22;;;;;;;19.73;48.13;102280.14;1510677;94;21137;-51
2022/10/22 09:55:54;;;;;;;8.98;2.72;;;;;;;19.70;48.09;102271.02;1521704;94;21133;-53
2022/10/22 09:58:22;;;;;;;4.53;1.70;;;;;;;19.67;48.23;102275.08;1512736;93;21125;-50
2022/10/22 10:00:59;;;;;;;6.60;2.22;;;;;;;19.63;48.54;102275.65;1530238;92;21074;-52
2022/10/22 10:03:30;;;;;;;5.45;2.52;;;;;;;19.62;48.20;102265.15;1518411;93;21118;-50
2022/10/22 10:05:58;;;;;;;9.10;2.55;;;;;;;19.60;48.49;102255.09;1533631;92;21110;-50
2022/10/22 10:08:25;;;;;;;8.78;2.42;;;;;;;19.60;49.23;102257.73;1533737;92;21054;-50
2022/10/22 10:10:56;;;;;;;9.73;3.35;;;;;;;19.60;49.07;102256.42;1533736;93;21102;-51
2022/10/22 10:13:53;;;;;;;7.80;2.15;;;;;;;19.60;48.46;102253.78;1533287;93;21186;-49
2022/10/22 10:16:35;;;;;;;5.40;2.02;;;;;;;19.61;48.17;102250.20;1531736;92;21099;-50
2022/10/22 10:19:10;;;;;;;5.30;2.15;;;;;;;19.62;48.44;102238.74;1533818;92;21143;-50
2022/10/22 10:21:50;;;;;;;6.53;2.15;;;;;;;19.63;48.34;102235.17;1532141;93;21128;-52
2022/10/22 10:24:43;;;;;;;5.30;2.10;;;;;;;19.65;48.13;102230.69;1532609;92;21102;-50
2022/10/22 10:27:24;;;;;;;7.28;2.47;;;;;;;19.64;48.07;102231.62;1614275;85;21087;-55
2022/10/22 10:30:11;;;;;;;7.60;2.75;;;;;;;19.63;47.95;102230.75;1672897;83;21039;-51
2022/10/22 10:33:25;;;;;;;5.00;1.82;;;;;;;19.62;47.81;102225.54;1670107;84;21076;-55
2022/10/22 10:36:03;;;;;;;6.25;1.87;;;;;;;19.58;47.63;102213.36;1669899;83;21115;-50
2022/10/22 10:38:36;;;;;;;5.83;2.45;;;;;;;19.54;47.76;102213.08;1666865;85;21064;-50
2022/10/22 10:41:30;;;;;;;5.45;2.00;;;;;;;19.51;47.84;102210.08;1665182;85;21569;-53
2022/10/22 10:44:40;;;;;;;8.58;2.37;;;;;;;19.49;47.91;102208.78;1669370;84;21576;-51
2022/10/22 10:47:13;;;;;;;6.20;2.30;;;;;;;19.49;48.49;102203.98;1588832;89;21564;-50
2022/10/22 10:49:39;;;;;;;4.47;1.85;;;;;;;19.48;49.00;102205.76;1588124;90;21076;-51
2022/10/22 10:52:31;;;;;;;13.93;3.05;;;;;;;19.47;48.91;102207.98;1587024;90;21084;-50
2022/10/22 10:55:07;;;;;;;;;;;;;;;19.47;49.04;102210.62;1606298;87;21049;-51
2022/10/22 10:57:58;;;;;;;9.85;2.02;;;;;;;19.44;48.79;102200.64;1608000;87;20211;-50
2022/10/22 11:00:26;;;;;;;6.42;1.90;;;;;;;19.40;48.89;102205.17;1619387;87;21027;-50
2022/10/22 11:03:23;;;;;;;6.90;2.12;;;;;;;19.38;48.74;102190.30;1622204;87;21141;-53
2022/10/22 11:06:10;;;;;;;7.90;2.27;;;;;;;19.36;48.83;102183.76;1608778;88;21066;-55
2022/10/22 11:08:42;;;;;;;9.48;2.00;;;;;;;19.36;49.04;102185.08;1622261;87;21101;-56
2022/10/22 11:11:34;;;;;;;5.72;2.12;;;;;;;19.37;49.25;102174.91;1621372;88;21058;-50
2022/10/22 11:14:18;;;;;;;7.53;1.98;;;;;;;19.36;49.14;102179.80;1622225;87;21070;-51
2022/10/22 11:16:52;;;;;;;5.87;2.00;;;;;;;19.39;49.22;102170.92;1621524;87;21121;-51
2022/10/22 11:19:42;;;;;;;15.90;2.50;;;;;;;19.39;49.04;102170.44;1620467;88;21046;-50
2022/10/22 11:22:27;;;;;;;7.83;2.10;;;;;;;19.39;49.14;102167.80;1480039;97;21162;-52
2022/10/22 11:25:14;;;;;;;10.90;2.40;;;;;;;19.38;49.11;102167.41;1416802;99;21674;-53
2022/10/22 11:27:51;;;;;;;9.30;2.37;;;;;;;19.39;49.28;102170.44;1415655;100;21674;-52
2022/10/22 11:30:20;;;;;;;6.65;1.87;;;;;;;19.38;49.72;102171.38;1415605;100;21133;-51
2022/10/22 11:32:55;;;;;;;7.60;2.25;;;;;;;19.36;49.38;102167.92;1415633;100;21129;-52
2022/10/22 11:35:35;;;;;;;6.70;2.33;;;;;;;19.36;49.88;102161.78;1414535;100;21169;-50
2022/10/22 11:38:02;;;;;;;5.62;2.15;;;;;;;19.36;50.18;102155.17;1397400;101;21223;-49
2022/10/22 11:40:36;;;;;;;4.45;2.17;;;;;;;19.37;49.90;102151.64;1397206;101;21176;-54
2022/10/22 11:43:11;;;;;;;3.15;1.47;;;;;;;19.37;49.51;102143.72;1397415;101;21628;-52
2022/10/22 11:45:40;;;;;;;6.12;1.80;;;;;;;19.36;49.90;102144.17;1342608;105;21230;-50
2022/10/22 11:48:17;;;;;;;6.30;2.15;;;;;;;19.38;50.04;102145.42;1338985;105;21145;-52
2022/10/22 11:50:58;;;;;;;5.35;1.77;;;;;;;19.38;50.10;102146.30;1342709;105;21138;-50